Time;durP1;ratioP1;P1;durP2;ratioP2;P2;SDS_P1;SDS_P2;PMS_P1;PMS_P2;Temp;Humidity;BMP_temperature;BMP_pressure;BME280_temperature;BME280_humidity;BME280_pressure;Samples;Min_cycle;Max_cycle;Signal;HPM_P1;HPM_P2
2021/10/27 00:01:17;;;;;;;3.75;1.20;;;;;;;14.02;73.51;100195.34;4981448;28;20097;-48
2021/10/27 00:03:43;;;;;;;1.55;1.13;;;;;;;14.01;73.15;100185.78;4987672;28;20069;-50
2021/10/27 00:06:10;;;;;;;1.63;0.80;;;;;;;13.95;74.55;100178.06;4993620;28;20045;-48
2021/10/27 00:08:37;;;;;;;1.95;0.60;;;;;;;13.92;74.61;100172.91;4987463;28;20132;-48
2021/10/27 00:11:05;;;;;;;1.48;0.75;;;;;;;13.90;73.98;100170.31;4992425;28;20670;-48
2021/10/27 00:13:33;;;;;;;1.65;0.50;;;;;;;13.84;73.74;100159.97;4990770;28;20071;-48
2021/10/27 00:16:02;;;;;;;2.47;0.80;;;;;;;13.81;73.30;100166.09;4991181;28;20158;-49
2021/10/27 00:18:31;;;;;;;2.75;1.40;;;;;;;13.78;74.29;100165.28;4992402;28;20053;-49
2021/10/27 00:20:59;;;;;;;1.88;0.45;;;;;;;13.76;74.57;100162.72;4989192;28;20570;-48
2021/10/27 00:23:28;;;;;;;2.97;0.95;;;;;;;13.74;74.46;100164.47;4997993;28;20663;-47
2021/10/27 00:25:55;;;;;;;3.20;0.82;;;;;;;13.69;74.81;100167.16;4987900;28;20050;-48
2021/10/27 00:28:22;;;;;;;1.73;0.68;;;;;;;13.70;73.90;100162.78;4988743;28;20058;-48
2021/10/27 00:30:48;;;;;;;1.77;0.77;;;;;;;13.68;73.98;100159.38;4991539;28;20058;-47
2021/10/27 00:33:16;;;;;;;3.05;0.98;;;;;;;13.65;74.01;100156.78;4988285;28;20081;-48
2021/10/27 00:35:43;;;;;;;2.88;0.88;;;;;;;13.66;74.09;100155.91;4988533;28;20081;-49
2021/10/27 00:38:10;;;;;;;1.90;0.82;;;;;;;13.64;73.75;100157.69;4987513;28;20584;-48
2021/10/27 00:40:37;;;;;;;2.08;0.68;;;;;;;13.61;73.82;100164.63;4985329;28;20050;-49
2021/10/27 00:43:04;;;;;;;4.43;0.75;;;;;;;13.60;73.08;100168.13;4989328;28;20756;-49
2021/10/27 00:45:30;;;;;;;6.75;1.35;;;;;;;13.58;73.40;100182.88;4987341;28;20090;-48
2021/10/27 00:47:57;;;;;;;4.35;0.95;;;;;;;13.60;73.28;100182.88;4986714;28;20050;-51
2021/10/27 00:50:24;;;;;;;3.40;0.68;;;;;;;13.58;74.48;100174.25;4995572;28;20047;-48
2021/10/27 00:52:51;;;;;;;1.60;1.13;;;;;;;13.55;73.84;100175.16;4988038;28;20046;-48
2021/10/27 00:55:18;;;;;;;4.65;0.85;;;;;;;13.56;73.83;100178.59;4986995;28;20050;-48
2021/10/27 00:57:45;;;;;;;3.25;0.45;;;;;;;13.55;73.17;100180.34;4990078;28;20054;-48
2021/10/27 01:00:12;;;;;;;2.28;0.70;;;;;;;13.55;73.48;100164.75;4989416;28;20046;-47
2021/10/27 01:02:40;;;;;;;4.32;1.33;;;;;;;13.54;74.11;100177.75;4985572;28;20050;-49
2021/10/27 01:05:08;;;;;;;2.30;1.17;;;;;;;13.53;73.71;100181.22;4987280;28;20081;-50
2021/10/27 01:07:35;;;;;;;3.97;1.17;;;;;;;13.52;72.89;100185.59;4993216;28;20054;-48
2021/10/27 01:10:03;;;;;;;3.63;0.88;;;;;;;13.52;72.69;100189.91;4987023;28;20058;-48
2021/10/27 01:12:29;;;;;;;5.03;1.00;;;;;;;13.49;72.41;100186.50;4988554;28;20054;-48
2021/10/27 01:14:56;;;;;;;2.83;0.80;;;;;;;13.50;73.38;100187.34;4986858;28;20817;-48
2021/10/27 01:17:22;;;;;;;5.32;1.63;;;;;;;13.49;72.58;100190.81;4987101;28;20112;-49
2021/10/27 01:19:52;;;;;;;4.45;1.05;;;;;;;13.46;72.38;100188.22;4993020;28;20061;-49
2021/10/27 01:22:22;;;;;;;4.43;0.82;;;;;;;13.45;72.70;100183.91;4986342;28;20047;-48
2021/10/27 01:24:49;;;;;;;4.25;0.95;;;;;;;13.45;73.16;100199.53;4987628;28;20128;-48
2021/10/27 01:27:16;;;;;;;5.00;1.10;;;;;;;13.44;72.56;100187.41;4985869;28;20458;-48
2021/10/27 01:29:43;;;;;;;2.88;0.68;;;;;;;13.46;73.90;100188.22;4990997;28;20057;-49
2021/10/27 01:32:10;;;;;;;4.15;0.77;;;;;;;13.46;73.41;100190.81;4989026;28;20514;-47
2021/10/27 01:34:37;;;;;;;6.20;1.50;;;;;;;13.49;73.10;100183.91;4989388;28;20077;-48
2021/10/27 01:37:05;;;;;;;3.75;1.15;;;;;;;13.47;72.90;100176.94;4987870;28;20509;-48
2021/10/27 01:39:32;;;;;;;13.27;1.35;;;;;;;13.46;73.07;100167.41;4983637;28;20501;-48
2021/10/27 01:41:58;;;;;;;5.40;0.82;;;;;;;13.44;73.38;100177.00;4990533;28;20093;-48
2021/10/27 01:44:25;;;;;;;2.70;1.17;;;;;;;13.40;73.45;100170.09;4987749;28;20108;-48
2021/10/27 01:46:51;;;;;;;5.07;1.10;;;;;;;13.43;73.28;100177.84;4984814;28;20046;-48
2021/10/27 01:49:18;;;;;;;3.00;1.00;;;;;;;13.44;73.18;100171.78;4983878;28;20052;-49
2021/10/27 01:51:45;;;;;;;4.93;0.95;;;;;;;13.45;74.53;100178.72;4985016;28;20077;-49
2021/10/27 01:54:12;;;;;;;3.10;0.77;;;;;;;13.50;73.93;100176.94;4986416;28;20137;-48
2021/10/27 01:56:39;;;;;;;5.10;1.10;;;;;;;13.52;73.67;100185.59;4986013;28;20062;-50
2021/10/27 01:59:06;;;;;;;4.20;1.05;;;;;;;13.58;73.73;100182.03;4985904;28;20046;-49
2021/10/27 02:01:33;;;;;;;4.50;0.82;;;;;;;13.59;74.00;100171.63;4984651;28;20054;-49
2021/10/27 02:03:59;;;;;;;6.35;0.77;;;;;;;13.62;73.69;100171.56;4987541;28;20474;-48
2021/10/27 02:06:26;;;;;;;3.60;0.93;;;;;;;13.65;74.14;100164.59;4984934;28;20503;-50
2021/10/27 02:08:53;;;;;;;4.35;1.58;;;;;;;13.67;73.22;100168.91;4987147;28;20053;-48
2021/10/27 02:11:20;;;;;;;6.05;2.15;;;;;;;13.68;73.33;100157.59;4994606;28;20442;-47
2021/10/27 02:13:53;;;;;;;3.92;1.17;;;;;;;13.70;74.16;100142.84;4982962;28;20108;-48
2021/10/27 02:16:22;;;;;;;4.78;1.35;;;;;;;13.73;73.92;100139.31;4998396;28;20061;-50
2021/10/27 02:18:49;;;;;;;2.47;0.55;;;;;;;13.75;73.20;100150.59;4985748;28;20046;-49
2021/10/27 02:21:16;;;;;;;5.55;0.82;;;;;;;13.77;74.12;100140.16;4989211;28;20046;-50
2021/10/27 02:23:43;;;;;;;7.00;1.38;;;;;;;13.78;73.35;100134.06;4990500;28;20034;-50
2021/10/27 02:26:10;;;;;;;6.28;1.25;;;;;;;13.79;73.63;100136.66;4987892;28;20128;-49
2021/10/27 02:28:36;;;;;;;6.70;1.05;;;;;;;13.84;73.12;100128.75;4992896;28;20050;-48
2021/10/27 02:31:04;;;;;;;2.63;1.13;;;;;;;13.84;74.00;100124.41;4987692;28;20054;-51
2021/10/27 02:33:30;;;;;;;2.83;1.00;;;;;;;13.83;73.88;100114.88;4991112;28;20097;-49
2021/10/27 02:35:57;;;;;;;4.55;0.88;;;;;;;13.87;73.13;100119.16;4982265;28;20105;-50
2021/10/27 02:38:41;;;;;;;5.47;0.98;;;;;;;13.87;73.83;100108.75;4968002;28;20538;-51
2021/10/27 02:41:11;;;;;;;5.03;0.90;;;;;;;13.87;73.63;100100.94;4982861;28;20050;-49
2021/10/27 02:43:38;;;;;;;3.28;1.63;;;;;;;13.90;74.06;100099.16;4989159;28;20482;-51
2021/10/27 02:46:05;;;;;;;3.17;1.75;;;;;;;13.88;73.23;100109.59;4990168;28;20501;-48
2021/10/27 02:48:32;;;;;;;3.95;1.10;;;;;;;13.87;73.27;100098.34;4985280;28;20043;-49
2021/10/27 02:50:59;;;;;;;5.03;1.05;;;;;;;13.89;74.47;100111.34;4985815;28;20046;-49
2021/10/27 02:53:25;;;;;;;6.75;1.60;;;;;;;13.88;74.31;100112.19;4987049;28;20113;-49
2021/10/27 02:55:52;;;;;;;3.17;0.82;;;;;;;13.90;74.42;100104.34;4993071;28;20053;-50
2021/10/27 02:58:19;;;;;;;3.97;0.93;;;;;;;13.92;73.96;100100.00;4996486;28;20501;-49
2021/10/27 03:00:45;;;;;;;4.85;0.95;;;;;;;13.94;73.86;100103.44;4993535;28;20054;-49
2021/10/27 03:03:12;;;;;;;8.88;1.50;;;;;;;13.94;73.30;100098.22;5000718;28;20050;-50
2021/10/27 03:05:39;;;;;;;4.00;1.08;;;;;;;13.95;73.12;100094.75;4983318;28;20049;-52
2021/10/27 03:08:06;;;;;;;5.13;1.58;;;;;;;13.96;73.35;100092.13;4993118;28;20050;-46
2021/10/27 03:10:32;;;;;;;4.18;0.93;;;;;;;13.99;73.82;100086.84;4990783;28;20058;-48
2021/10/27 03:12:59;;;;;;;2.20;1.08;;;;;;;13.98;73.17;100092.94;4988354;28;20145;-47
2021/10/27 03:15:25;;;;;;;4.03;1.45;;;;;;;14.00;74.01;100098.13;4990151;28;20689;-52
2021/10/27 03:17:52;;;;;;;7.93;0.73;;;;;;;14.03;73.36;100098.09;4993269;28;20054;-52
2021/10/27 03:20:19;;;;;;;4.50;0.80;;;;;;;14.03;73.45;100097.22;4993864;28;20050;-50
2021/10/27 03:22:46;;;;;;;3.00;1.25;;;;;;;13.98;73.48;100095.53;4987298;28;20046;-49
2021/10/27 03:25:12;;;;;;;4.43;0.95;;;;;;;13.97;73.07;100092.97;4992705;28;20053;-50
2021/10/27 03:27:39;;;;;;;4.18;0.98;;;;;;;13.90;73.28;100080.94;4990914;28;20068;-52
2021/10/27 03:30:06;;;;;;;1.52;0.85;;;;;;;13.84;73.73;100093.16;4990008;28;20749;-51
2021/10/27 03:32:33;;;;;;;4.10;0.52;;;;;;;13.82;74.00;100094.91;4985862;28;20709;-52
2021/10/27 03:34:59;;;;;;;3.58;1.23;;;;;;;13.79;73.49;100092.38;4987442;28;20115;-48
2021/10/27 03:37:26;;;;;;;7.05;0.93;;;;;;;13.74;74.12;100094.19;4988487;28;20092;-49
2021/10/27 03:39:52;;;;;;;3.75;0.70;;;;;;;13.68;73.69;100092.53;4987824;28;20061;-48
2021/10/27 03:42:19;;;;;;;4.53;0.70;;;;;;;13.69;73.34;100093.41;4994553;28;20054;-49
2021/10/27 03:44:46;;;;;;;3.45;0.73;;;;;;;13.67;73.12;100082.13;4988325;28;20062;-49
2021/10/27 03:47:13;;;;;;;2.70;0.35;;;;;;;13.65;72.74;100102.13;4999359;28;20046;-50
2021/10/27 03:49:39;;;;;;;2.42;0.93;;;;;;;13.64;73.72;100116.03;4988152;28;20055;-48
2021/10/27 03:52:06;;;;;;;4.50;1.08;;;;;;;13.64;73.40;100100.44;4992728;28;20096;-50
2021/10/27 03:54:32;;;;;;;2.22;0.60;;;;;;;13.67;73.43;100106.44;4989347;28;20439;-50
2021/10/27 03:56:59;;;;;;;5.40;0.70;;;;;;;13.69;74.38;100103.81;4990267;28;20152;-48
2021/10/27 03:59:26;;;;;;;4.20;0.88;;;;;;;13.68;73.47;100102.94;4991928;28;20047;-48
2021/10/27 04:01:52;;;;;;;2.25;0.65;;;;;;;13.73;73.46;100115.91;4986528;28;20050;-49
2021/10/27 04:04:19;;;;;;;3.42;0.70;;;;;;;13.73;74.10;100098.53;4987673;28;20061;-48
2021/10/27 04:06:46;;;;;;;4.07;0.50;;;;;;;13.75;74.27;100104.56;4983790;28;20649;-49
2021/10/27 04:09:13;;;;;;;2.80;0.68;;;;;;;13.77;74.62;100101.94;4985876;28;20050;-49
2021/10/27 04:11:41;;;;;;;6.90;1.15;;;;;;;13.79;73.61;100089.78;4998146;28;20049;-48
2021/10/27 04:14:08;;;;;;;2.53;0.82;;;;;;;13.80;74.10;100096.69;4990963;28;20054;-49
2021/10/27 04:16:35;;;;;;;3.30;0.88;;;;;;;13.80;73.85;100091.50;4990305;28;20054;-48
2021/10/27 04:19:02;;;;;;;2.25;0.55;;;;;;;13.80;73.96;100088.91;4984721;28;20105;-49
2021/10/27 04:21:29;;;;;;;3.75;1.13;;;;;;;13.81;73.50;100093.22;4989695;28;20053;-50
2021/10/27 04:23:56;;;;;;;2.47;0.65;;;;;;;13.80;74.42;100090.63;4987566;28;20042;-48
2021/10/27 04:26:23;;;;;;;5.45;0.63;;;;;;;13.78;74.91;100093.25;4989389;28;20073;-49
2021/10/27 04:28:52;;;;;;;6.78;1.05;;;;;;;13.81;74.00;100098.41;4987950;28;20050;-52
2021/10/27 04:31:20;;;;;;;2.15;1.02;;;;;;;13.82;74.56;100099.28;4989699;28;20050;-49
2021/10/27 04:33:47;;;;;;;3.72;0.85;;;;;;;13.81;74.69;100097.56;4984503;28;20121;-49
2021/10/27 04:36:15;;;;;;;2.33;1.65;;;;;;;13.82;74.02;100105.34;4983123;28;20065;-51
2021/10/27 04:38:42;;;;;;;1.48;0.70;;;;;;;13.85;74.59;100104.44;4989587;28;20097;-50
2021/10/27 04:41:09;;;;;;;3.05;1.23;;;;;;;13.88;73.71;100094.84;4984872;28;20093;-52
2021/10/27 04:43:37;;;;;;;3.08;0.60;;;;;;;13.91;73.63;100111.31;4999497;28;20112;-49
2021/10/27 04:46:04;;;;;;;2.60;0.60;;;;;;;13.93;74.49;100104.31;4987519;28;20054;-48
2021/10/27 04:48:31;;;;;;;1.98;0.52;;;;;;;13.93;74.35;100101.72;4987255;28;20042;-48
2021/10/27 04:50:57;;;;;;;1.92;0.63;;;;;;;13.92;74.55;100094.78;4991408;28;20093;-49
2021/10/27 04:53:25;;;;;;;3.22;0.70;;;;;;;13.90;75.51;100101.75;4988884;28;20050;-47
2021/10/27 04:55:52;;;;;;;4.88;0.68;;;;;;;13.91;75.29;100106.09;4988319;28;20058;-47
2021/10/27 04:58:21;;;;;;;3.75;0.52;;;;;;;13.86;75.96;100114.84;4985519;28;20081;-48
2021/10/27 05:00:48;;;;;;;4.03;0.60;;;;;;;13.90;75.38;100118.25;4984084;28;21546;-48
2021/10/27 05:03:17;;;;;;;2.25;0.63;;;;;;;13.86;76.00;100116.56;5002911;28;20057;-52
2021/10/27 05:05:48;;;;;;;2.60;0.85;;;;;;;13.87;75.65;100121.75;4994682;28;20113;-51
2021/10/27 05:08:17;;;;;;;6.13;0.80;;;;;;;13.83;76.34;100122.69;4991564;28;20068;-48
2021/10/27 05:10:44;;;;;;;2.53;0.45;;;;;;;13.85;76.22;100118.31;4987545;28;20058;-50
2021/10/27 05:13:11;;;;;;;7.10;0.85;;;;;;;13.84;76.47;100119.19;4996916;28;20053;-48
2021/10/27 05:15:37;;;;;;;2.35;0.93;;;;;;;13.83;75.85;100122.69;4987328;28;20046;-48
2021/10/27 05:18:05;;;;;;;1.98;0.60;;;;;;;13.84;75.96;100119.19;4991244;28;20057;-49
2021/10/27 05:20:32;;;;;;;4.13;0.50;;;;;;;13.83;76.00;100122.69;4990831;28;20046;-50
2021/10/27 05:22:58;;;;;;;2.60;1.30;;;;;;;13.85;75.38;100117.47;4989351;28;20042;-51
2021/10/27 05:25:25;;;;;;;4.50;0.80;;;;;;;13.87;75.25;100119.16;4994065;28;20442;-51
2021/10/27 05:27:52;;;;;;;1.30;0.60;;;;;;;13.91;74.86;100124.31;4985917;28;20046;-49
2021/10/27 05:30:19;;;;;;;1.73;0.65;;;;;;;13.88;75.37;100118.28;4987708;28;20062;-52
2021/10/27 05:32:46;;;;;;;4.05;0.73;;;;;;;13.93;74.95;100128.63;4985735;28;20097;-50
2021/10/27 05:35:12;;;;;;;3.97;1.15;;;;;;;13.98;75.11;100120.72;4993986;28;20046;-49
2021/10/27 05:37:39;;;;;;;1.10;0.47;;;;;;;13.95;74.41;100115.59;4984414;28;20050;-46
2021/10/27 05:40:06;;;;;;;2.35;0.43;;;;;;;13.98;74.36;100110.31;4988235;28;20038;-48
2021/10/27 05:42:34;;;;;;;0.98;0.85;;;;;;;13.99;74.14;100112.03;4987286;28;20101;-48
2021/10/27 05:45:04;;;;;;;3.08;0.60;;;;;;;13.99;74.07;100105.06;4985364;28;20112;-52
2021/10/27 05:47:30;;;;;;;2.95;0.55;;;;;;;14.02;73.79;100104.19;4996276;28;20085;-49
2021/10/27 05:50:20;;;;;;;4.15;0.50;;;;;;;14.02;73.61;100098.97;4990620;28;20054;-52
2021/10/27 05:55:33;;;;;;;3.40;0.63;;;;;;;14.00;73.57;100083.38;4987576;28;20112;-51
2021/10/27 05:58:01;;;;;;;1.40;0.77;;;;;;;14.01;72.48;100076.41;4985886;28;20049;-50
2021/10/27 06:00:28;;;;;;;1.67;0.80;;;;;;;13.98;72.00;100069.50;4984446;28;20061;-52
2021/10/27 06:02:55;;;;;;;3.22;1.10;;;;;;;13.99;72.71;100065.16;4987735;28;20050;-50
2021/10/27 06:05:22;;;;;;;3.80;0.95;;;;;;;13.97;72.21;100078.22;4991255;28;20050;-51
2021/10/27 06:07:49;;;;;;;3.70;0.50;;;;;;;14.02;72.75;100072.94;4989070;28;20064;-48
2021/10/27 06:10:20;;;;;;;2.63;1.02;;;;;;;14.04;71.60;100055.53;4988682;28;20054;-48
2021/10/27 06:12:49;;;;;;;2.25;0.68;;;;;;;14.05;72.38;100065.06;4984419;28;20079;-49
2021/10/27 06:15:18;;;;;;;5.43;1.95;;;;;;;14.07;71.71;100073.72;4981785;28;20054;-52
2021/10/27 06:17:45;;;;;;;3.63;1.08;;;;;;;14.04;72.08;100078.97;4984192;28;20050;-47
2021/10/27 06:20:13;;;;;;;3.13;1.00;;;;;;;14.06;72.25;100085.03;4988383;28;20050;-48
2021/10/27 06:22:41;;;;;;;2.58;0.70;;;;;;;14.05;71.89;100080.69;4990019;28;20100;-48
2021/10/27 06:25:09;;;;;;;4.65;0.52;;;;;;;14.06;71.54;100084.16;4988347;28;20108;-49
2021/10/27 06:27:37;;;;;;;4.43;0.73;;;;;;;14.07;71.87;100084.13;4983643;28;20054;-48
2021/10/27 06:30:10;;;;;;;2.75;0.82;;;;;;;14.09;72.57;100102.34;4993091;28;20395;-49
2021/10/27 06:32:48;;;;;;;2.53;0.85;;;;;;;14.13;72.11;100098.78;4987556;28;20170;-47
2021/10/27 06:35:19;;;;;;;2.03;0.60;;;;;;;14.13;71.63;100104.88;4994712;28;20058;-50
2021/10/27 06:48:52;;;;;;;2.63;0.70;;;;;;;14.16;71.82;100108.28;4987622;28;20545;-47
2021/10/27 06:51:19;;;;;;;4.25;1.20;;;;;;;14.17;72.36;100100.47;4983312;28;20153;-47
2021/10/27 06:53:46;;;;;;;4.75;0.75;;;;;;;14.16;72.79;100101.34;5001086;28;20046;-51
2021/10/27 06:56:14;;;;;;;3.78;0.60;;;;;;;14.17;71.83;100100.47;4987550;28;20104;-50
2021/10/27 06:58:46;;;;;;;6.68;1.73;;;;;;;14.18;72.45;100102.16;4986339;28;20050;-49
2021/10/27 07:01:20;;;;;;;4.50;0.77;;;;;;;14.18;72.11;100117.78;4996713;28;20182;-51
2021/10/27 07:06:42;;;;;;;3.80;0.85;;;;;;;14.18;72.32;100122.16;4987561;28;20548;-49
2021/10/27 07:17:30;;;;;;;3.78;1.00;;;;;;;14.21;71.76;100129.91;4986535;28;20058;-48
2021/10/27 07:19:57;;;;;;;2.05;0.65;;;;;;;14.21;72.09;100132.50;4989986;28;20046;-48
2021/10/27 07:22:23;;;;;;;3.08;1.13;;;;;;;14.24;71.50;100129.88;4988199;28;20117;-47
2021/10/27 07:24:50;;;;;;;6.80;1.17;;;;;;;14.25;72.06;100134.19;4983657;28;20046;-48
2021/10/27 07:27:18;;;;;;;2.67;1.15;;;;;;;14.25;71.72;100134.19;4987787;28;20050;-51
2021/10/27 07:29:45;;;;;;;6.40;1.15;;;;;;;14.29;71.17;100135.00;4990118;28;20050;-50
2021/10/27 07:32:15;;;;;;;9.80;1.48;;;;;;;14.31;71.36;100136.69;4994327;28;20058;-48
2021/10/27 07:43:12;;;;;;;2.53;1.33;;;;;;;14.39;70.71;100142.63;4999498;28;20511;-47
2021/10/27 07:45:40;;;;;;;4.20;0.82;;;;;;;14.38;71.27;100146.13;4987076;28;20054;-51
2021/10/27 07:48:07;;;;;;;5.13;0.77;;;;;;;14.42;70.52;100140.88;4992837;28;20050;-48
2021/10/27 07:50:35;;;;;;;2.33;0.95;;;;;;;14.42;70.83;100159.13;4971059;28;20483;-52
2021/10/27 07:53:05;;;;;;;1.17;0.57;;;;;;;14.43;71.07;100148.66;4994360;28;20124;-49
2021/10/27 07:55:33;;;;;;;2.58;0.75;;;;;;;14.42;70.67;100156.50;4986085;28;20449;-48
2021/10/27 07:58:01;;;;;;;1.58;0.75;;;;;;;14.41;70.89;100155.63;4988241;28;20099;-48
2021/10/27 08:00:29;;;;;;;5.43;0.75;;;;;;;14.43;69.80;100169.50;4990819;28;20058;-48
2021/10/27 08:03:01;;;;;;;2.03;1.27;;;;;;;14.44;70.38;100162.53;4988098;28;20145;-47
2021/10/27 08:05:39;;;;;;;5.72;1.45;;;;;;;14.46;70.66;100163.38;4991740;28;20066;-51
2021/10/27 08:08:09;;;;;;;4.20;0.55;;;;;;;14.47;70.92;100165.09;4985048;28;20076;-48
2021/10/27 08:10:36;;;;;;;4.10;1.27;;;;;;;14.47;70.74;100171.19;4986589;28;20867;-51
2021/10/27 08:13:03;;;;;;;4.28;1.25;;;;;;;14.49;70.37;100163.34;4986287;28;20050;-47
2021/10/27 08:15:30;;;;;;;4.55;0.73;;;;;;;14.52;69.86;100163.25;4988776;28;20523;-48
2021/10/27 08:17:57;;;;;;;1.90;0.70;;;;;;;14.53;70.46;100155.41;4992888;28;20105;-47
2021/10/27 08:20:27;;;;;;;1.95;0.63;;;;;;;14.55;70.38;100158.00;4987550;28;20046;-51
2021/10/27 08:22:57;;;;;;;2.33;0.80;;;;;;;14.55;70.78;100158.00;4984443;28;20411;-51
2021/10/27 08:25:36;;;;;;;2.55;0.75;;;;;;;14.58;70.22;100163.16;4987829;28;20058;-48
2021/10/27 08:28:08;;;;;;;1.10;0.63;;;;;;;14.57;70.71;100161.44;4997667;28;20046;-48
2021/10/27 08:30:41;;;;;;;4.05;0.70;;;;;;;14.59;70.42;100167.47;4988154;28;20677;-52
2021/10/27 08:33:09;;;;;;;1.52;0.60;;;;;;;14.60;70.71;100169.22;4987482;28;20104;-50
2021/10/27 08:35:38;;;;;;;4.03;0.95;;;;;;;14.59;70.44;100164.88;4988337;28;20050;-51
2021/10/27 08:38:04;;;;;;;3.25;0.63;;;;;;;14.59;69.96;100170.09;4986682;28;20058;-48
2021/10/27 08:40:31;;;;;;;3.63;0.70;;;;;;;14.60;69.80;100171.84;4985903;28;20145;-50
2021/10/27 08:42:58;;;;;;;1.52;1.42;;;;;;;14.62;70.53;100175.25;4984961;28;20454;-52
2021/10/27 08:45:28;;;;;;;2.95;0.65;;;;;;;14.62;70.03;100179.59;4989487;28;20452;-48
2021/10/27 08:47:58;;;;;;;2.38;1.30;;;;;;;14.61;70.53;100170.94;4986178;28;20053;-48
2021/10/27 08:50:25;;;;;;;2.83;0.82;;;;;;;14.62;70.20;100175.25;4994996;28;20073;-50
2021/10/27 08:52:52;;;;;;;2.10;0.45;;;;;;;14.59;70.17;100164.03;4984557;28;20089;-51
2021/10/27 08:55:20;;;;;;;2.50;1.02;;;;;;;14.61;70.21;100183.97;4990307;28;20058;-48
2021/10/27 08:57:49;;;;;;;2.45;0.80;;;;;;;14.60;70.33;100181.38;4989105;28;20057;-48
2021/10/27 09:00:22;;;;;;;2.63;0.52;;;;;;;14.60;70.17;100177.03;4996689;28;20046;-49
2021/10/27 09:03:05;;;;;;;5.10;1.23;;;;;;;14.61;70.51;100165.72;4992643;28;20042;-48
2021/10/27 09:40:41;;;;;;;4.57;1.92;;;;;;;14.96;70.32;100149.50;4999459;28;20470;-50
2021/10/27 09:43:14;;;;;;;3.30;0.88;;;;;;;15.16;69.83;100136.91;4982803;28;20093;-48
2021/10/27 10:05:22;;;;;;;4.82;1.17;;;;;;;16.41;67.38;100141.06;4991726;28;20514;-48
2021/10/27 10:07:50;;;;;;;3.78;1.42;;;;;;;16.48;66.79;100141.78;4993001;28;20108;-48
2021/10/27 10:10:17;;;;;;;4.38;1.02;;;;;;;16.52;67.36;100138.19;4994752;28;20527;-48
2021/10/27 10:12:51;;;;;;;4.63;1.20;;;;;;;16.56;66.43;100142.44;4987621;28;20058;-48
2021/10/27 10:15:23;;;;;;;2.90;1.17;;;;;;;16.52;65.97;100138.19;4997447;28;20047;-49
2021/10/27 10:17:52;;;;;;;3.45;1.33;;;;;;;16.45;65.94;100138.34;4987331;28;20116;-48
2021/10/27 10:20:20;;;;;;;8.23;1.02;;;;;;;16.39;66.49;100146.38;4992243;28;20053;-51
2021/10/27 10:23:22;;;;;;;1.45;0.93;;;;;;;16.24;65.08;100144.97;4991140;28;20042;-48
2021/10/27 10:25:52;;;;;;;3.28;0.98;;;;;;;16.18;66.01;100146.00;4989966;28;20092;-48
2021/10/27 10:28:24;;;;;;;2.75;0.85;;;;;;;16.12;65.96;100148.78;5000420;28;20081;-51
2021/10/27 10:30:54;;;;;;;5.32;1.13;;;;;;;16.12;66.51;100154.00;4988775;28;20115;-48
2021/10/27 10:33:40;;;;;;;2.13;0.32;;;;;;;16.11;66.82;100154.03;4989342;28;20043;-48
2021/10/27 10:36:26;;;;;;;2.30;0.95;;;;;;;16.12;66.57;100156.59;4987347;28;20050;-48
2021/10/27 10:39:22;;;;;;;2.03;0.73;;;;;;;16.14;66.54;100149.56;4990337;28;20054;-49
2021/10/27 10:41:50;;;;;;;3.78;1.08;;;;;;;16.13;66.11;100153.09;4991380;28;20148;-48
2021/10/27 10:44:36;;;;;;;4.55;0.80;;;;;;;16.10;66.43;100162.75;4984654;28;20548;-49
2021/10/27 11:02:24;;;;;;;3.42;1.00;;;;;;;16.06;67.27;100161.97;4990624;28;20089;-50
2021/10/27 11:25:11;;;;;;;3.40;0.80;;;;;;;16.11;67.16;100144.41;4987902;28;20085;-51
2021/10/27 11:37:18;;;;;;;1.42;0.55;;;;;;;16.12;66.56;100134.84;4989383;28;20104;-52
2021/10/27 11:42:16;;;;;;;2.75;0.45;;;;;;;16.11;66.65;100131.34;5001279;28;20068;-51
2021/10/27 11:44:46;;;;;;;1.45;1.00;;;;;;;16.09;66.85;100134.91;4986731;28;20100;-48
2021/10/27 11:47:15;;;;;;;3.22;0.75;;;;;;;16.12;67.09;100135.72;4989833;28;20083;-48
2021/10/27 11:49:52;;;;;;;3.20;0.93;;;;;;;16.12;66.56;100120.03;4990366;28;20089;-50
2021/10/27 11:52:19;;;;;;;2.10;0.57;;;;;;;16.19;67.12;100125.94;4986771;28;20054;-50
2021/10/27 11:54:54;;;;;;;4.45;1.52;;;;;;;16.27;67.03;100128.34;4989454;28;20096;-48
2021/10/27 11:57:21;;;;;;;5.38;1.08;;;;;;;16.33;67.09;100120.38;4989754;28;20058;-49
2021/10/27 11:59:48;;;;;;;2.47;0.60;;;;;;;16.37;66.44;100118.53;4984754;28;20054;-49
2021/10/27 12:02:16;;;;;;;1.88;0.80;;;;;;;16.39;67.28;100112.38;4991122;28;20058;-50
2021/10/27 12:04:43;;;;;;;1.20;0.70;;;;;;;16.47;65.96;100124.38;4987948;28;20086;-52
2021/10/27 12:07:18;;;;;;;2.05;0.98;;;;;;;16.49;66.50;100114.75;4994851;28;20069;-49
2021/10/27 12:10:04;;;;;;;1.73;0.98;;;;;;;16.51;66.44;100128.66;4985140;28;20051;-48
2021/10/27 12:12:45;;;;;;;4.60;0.77;;;;;;;16.45;66.65;100117.44;4987666;28;20097;-51
2021/10/27 12:15:27;;;;;;;2.67;0.82;;;;;;;16.44;66.91;100123.56;4987379;28;20086;-47
2021/10/27 12:18:01;;;;;;;2.78;0.82;;;;;;;16.47;67.06;100121.75;4987758;28;20112;-48
2021/10/27 12:20:40;;;;;;;1.33;0.93;;;;;;;16.53;67.32;100119.00;4988625;28;20113;-49
2021/10/27 12:23:19;;;;;;;;;;;;;;;16.35;66.72;100113.34;5003831;28;20042;-51
2021/10/27 12:25:47;;;;;;;2.67;0.52;;;;;;;16.39;67.12;100115.00;4986416;28;20037;-49
2021/10/27 12:28:34;;;;;;;4.47;1.05;;;;;;;16.33;66.83;100094.25;4992098;28;20093;-50
2021/10/27 12:31:25;;;;;;;2.97;1.15;;;;;;;16.31;66.37;100109.09;4987961;28;20438;-53
2021/10/27 12:33:51;;;;;;;2.33;0.63;;;;;;;16.36;66.92;100109.84;4987953;28;20108;-49
2021/10/27 12:36:33;;;;;;;2.55;0.85;;;;;;;16.31;67.21;100103.84;4989961;28;20114;-49
2021/10/27 12:39:23;;;;;;;4.10;1.10;;;;;;;16.20;67.05;100104.16;4986118;28;20054;-49
2021/10/27 12:42:03;;;;;;;5.38;1.13;;;;;;;16.19;66.70;100103.28;4999041;28;20054;-48
2021/10/27 12:44:30;;;;;;;2.17;1.08;;;;;;;16.24;67.23;100104.94;4980588;28;20054;-49
2021/10/27 12:47:25;;;;;;;4.32;0.98;;;;;;;16.24;67.36;100097.94;4986892;28;20054;-50
2021/10/27 12:50:05;;;;;;;3.80;1.13;;;;;;;16.26;66.60;100100.53;4990641;28;20097;-53
2021/10/27 12:52:35;;;;;;;0.73;0.65;;;;;;;16.25;66.96;100101.44;4983336;28;20101;-49
2021/10/27 12:55:27;;;;;;;2.58;0.77;;;;;;;16.19;67.06;100092.81;4993954;28;20041;-50
2021/10/27 12:58:10;;;;;;;3.67;0.88;;;;;;;16.21;66.79;100103.25;4984129;28;20046;-52
2021/10/27 13:00:50;;;;;;;3.38;1.00;;;;;;;16.16;66.90;100111.22;4986914;28;20049;-50
2021/10/27 13:06:18;;;;;;;2.70;1.15;;;;;;;16.13;66.91;100107.81;4959661;28;20133;-50
2021/10/27 13:09:10;;;;;;;2.42;0.90;;;;;;;16.16;66.47;100111.22;4987543;28;20137;-49
2021/10/27 13:11:47;;;;;;;3.08;0.95;;;;;;;16.15;66.77;100104.25;4985556;28;20054;-49
2021/10/27 13:14:37;;;;;;;2.92;0.75;;;;;;;16.13;67.20;100111.28;4984357;28;20104;-49
2021/10/27 13:22:48;;;;;;;4.47;1.48;;;;;;;16.13;66.76;100100.84;4992395;28;20495;-49
2021/10/27 13:30:55;;;;;;;2.63;1.23;;;;;;;16.09;66.50;100087.88;4987275;28;20077;-49
2021/10/27 13:33:23;;;;;;;2.78;1.15;;;;;;;16.10;65.86;100100.91;4988188;28;20053;-48
2021/10/27 13:35:50;;;;;;;2.17;1.33;;;;;;;16.09;66.10;100093.09;4995554;28;20042;-52
2021/10/27 13:38:20;;;;;;;4.03;1.25;;;;;;;16.12;66.54;100104.34;4985024;28;20050;-49
2021/10/27 13:40:48;;;;;;;5.07;1.00;;;;;;;16.09;66.53;100083.53;4981593;28;20046;-49
2021/10/27 13:46:18;;;;;;;6.20;0.82;;;;;;;16.07;66.09;100085.31;4979141;28;20046;-50
2021/10/27 14:08:23;;;;;;;3.25;1.13;;;;;;;15.97;66.82;100057.72;4968540;28;21050;-49
2021/10/27 14:11:00;;;;;;;5.10;0.98;;;;;;;15.95;66.65;100060.38;4993263;28;20049;-49
2021/10/27 14:13:40;;;;;;;4.32;1.15;;;;;;;15.94;67.00;100053.38;4982479;28;20055;-50
2021/10/27 14:19:24;;;;;;;4.68;1.10;;;;;;;15.91;67.39;100059.53;4996378;28;20046;-49
2021/10/27 15:20:15;;;;;;;2.95;0.95;;;;;;;15.64;66.66;100014.91;4984256;28;20100;-48
2021/10/27 15:25:48;;;;;;;4.25;0.82;;;;;;;15.57;67.44;100002.91;4984287;28;20050;-48
2021/10/27 15:28:35;;;;;;;4.90;1.40;;;;;;;15.52;66.81;100010.00;4986055;28;20632;-50
2021/10/27 15:34:04;;;;;;;2.78;0.95;;;;;;;15.46;66.31;99990.13;4986507;28;20050;-48
2021/10/27 15:42:20;;;;;;;1.13;0.68;;;;;;;15.37;66.99;99983.38;4990455;28;20096;-48
2021/10/27 15:45:12;;;;;;;4.55;1.02;;;;;;;15.33;66.75;99979.13;4985367;28;20050;-48